sensor_id;sensor_type;location;lat;lon;timestamp;P1;durP1;ratioP1;P2;durP2;ratioP2
54871;SDS011;43914;57.680;11.982;2023-01-28T00:00:03;7.60;;;1.60;;
54871;SDS011;43914;57.680;11.982;2023-01-28T00:02:35;7.00;;;1.60;;
54871;SDS011;43914;57.680;11.982;2023-01-28T00:05:01;7.70;;;1.70;;
54871;SDS011;43914;57.680;11.982;2023-01-28T00:07:27;5.20;;;1.30;;
54871;SDS011;43914;57.680;11.982;2023-01-28T00:09:53;6.40;;;1.50;;
54871;SDS011;43914;57.680;11.982;2023-01-28T00:12:18;8.00;;;1.60;;
54871;SDS011;43914;57.680;11.982;2023-01-28T00:14:44;7.10;;;1.60;;
54871;SDS011;43914;57.680;11.982;2023-01-28T00:17:13;8.70;;;2.30;;
54871;SDS011;43914;57.680;11.982;2023-01-28T00:19:39;8.10;;;1.90;;
54871;SDS011;43914;57.680;11.982;2023-01-28T00:22:08;11.20;;;2.10;;
54871;SDS011;43914;57.680;11.982;2023-01-28T00:24:35;8.20;;;2.00;;
54871;SDS011;43914;57.680;11.982;2023-01-28T00:27:00;6.80;;;2.00;;
54871;SDS011;43914;57.680;11.982;2023-01-28T00:29:26;8.20;;;2.10;;
54871;SDS011;43914;57.680;11.982;2023-01-28T00:31:52;7.60;;;2.10;;
54871;SDS011;43914;57.680;11.982;2023-01-28T00:34:17;9.00;;;1.80;;
54871;SDS011;43914;57.680;11.982;2023-01-28T00:36:43;9.40;;;1.90;;
54871;SDS011;43914;57.680;11.982;2023-01-28T00:39:10;6.50;;;1.60;;
54871;SDS011;43914;57.680;11.982;2023-01-28T00:41:39;7.90;;;2.10;;
54871;SDS011;43914;57.680;11.982;2023-01-28T00:44:04;7.80;;;1.70;;
54871;SDS011;43914;57.680;11.982;2023-01-28T00:46:30;10.70;;;2.10;;
54871;SDS011;43914;57.680;11.982;2023-01-28T00:48:55;11.70;;;2.20;;
54871;SDS011;43914;57.680;11.982;2023-01-28T00:51:21;10.20;;;2.00;;
54871;SDS011;43914;57.680;11.982;2023-01-28T00:53:46;6.00;;;1.90;;
54871;SDS011;43914;57.680;11.982;2023-01-28T00:56:14;10.70;;;2.40;;
54871;SDS011;43914;57.680;11.982;2023-01-28T00:58:42;9.20;;;2.00;;
54871;SDS011;43914;57.680;11.982;2023-01-28T01:03:41;6.00;;;1.80;;
54871;SDS011;43914;57.680;11.982;2023-01-28T01:06:07;9.60;;;2.20;;
54871;SDS011;43914;57.680;11.982;2023-01-28T01:08:33;5.70;;;1.80;;
54871;SDS011;43914;57.680;11.982;2023-01-28T01:11:00;8.50;;;1.80;;
54871;SDS011;43914;57.680;11.982;2023-01-28T01:13:26;10.80;;;2.10;;
54871;SDS011;43914;57.680;11.982;2023-01-28T01:16:05;8.70;;;1.70;;
54871;SDS011;43914;57.680;11.982;2023-01-28T01:18:31;8.40;;;1.80;;
54871;SDS011;43914;57.680;11.982;2023-01-28T01:21:08;7.70;;;1.60;;
54871;SDS011;43914;57.680;11.982;2023-01-28T01:23:48;6.50;;;1.70;;
54871;SDS011;43914;57.680;11.982;2023-01-28T01:26:14;6.60;;;1.90;;
54871;SDS011;43914;57.680;11.982;2023-01-28T01:28:40;10.00;;;1.80;;
54871;SDS011;43914;57.680;11.982;2023-01-28T01:31:07;7.70;;;1.50;;
54871;SDS011;43914;57.680;11.982;2023-01-28T01:33:36;7.90;;;1.80;;
54871;SDS011;43914;57.680;11.982;2023-01-28T01:36:04;8.60;;;1.80;;
54871;SDS011;43914;57.680;11.982;2023-01-28T01:38:31;10.20;;;1.90;;
54871;SDS011;43914;57.680;11.982;2023-01-28T01:40:59;7.80;;;1.70;;
54871;SDS011;43914;57.680;11.982;2023-01-28T01:43:45;9.50;;;1.90;;
54871;SDS011;43914;57.680;11.982;2023-01-28T01:46:11;7.10;;;1.40;;
54871;SDS011;43914;57.680;11.982;2023-01-28T01:48:37;8.20;;;1.50;;
54871;SDS011;43914;57.680;11.982;2023-01-28T01:51:07;9.40;;;1.80;;
54871;SDS011;43914;57.680;11.982;2023-01-28T01:53:38;8.30;;;1.70;;
54871;SDS011;43914;57.680;11.982;2023-01-28T01:56:07;13.80;;;1.60;;
54871;SDS011;43914;57.680;11.982;2023-01-28T01:58:37;10.50;;;2.00;;
54871;SDS011;43914;57.680;11.982;2023-01-28T02:01:06;11.30;;;2.00;;
54871;SDS011;43914;57.680;11.982;2023-01-28T02:03:42;9.10;;;1.80;;
54871;SDS011;43914;57.680;11.982;2023-01-28T02:06:11;9.00;;;1.80;;
54871;SDS011;43914;57.680;11.982;2023-01-28T02:08:37;11.40;;;1.70;;
54871;SDS011;43914;57.680;11.982;2023-01-28T02:11:04;9.50;;;1.60;;
54871;SDS011;43914;57.680;11.982;2023-01-28T02:13:38;6.10;;;1.50;;
54871;SDS011;43914;57.680;11.982;2023-01-28T02:16:08;16.40;;;2.00;;
54871;SDS011;43914;57.680;11.982;2023-01-28T02:18:35;8.50;;;2.00;;
54871;SDS011;43914;57.680;11.982;2023-01-28T02:32:29;10.80;;;2.10;;
54871;SDS011;43914;57.680;11.982;2023-01-28T02:35:12;8.40;;;1.90;;
54871;SDS011;43914;57.680;11.982;2023-01-28T02:38:03;9.00;;;1.70;;
54871;SDS011;43914;57.680;11.982;2023-01-28T02:40:38;10.60;;;1.80;;
54871;SDS011;43914;57.680;11.982;2023-01-28T02:45:59;8.20;;;1.60;;
54871;SDS011;43914;57.680;11.982;2023-01-28T02:48:53;7.90;;;1.80;;
54871;SDS011;43914;57.680;11.982;2023-01-28T02:51:23;15.00;;;1.80;;
54871;SDS011;43914;57.680;11.982;2023-01-28T02:54:26;6.70;;;1.40;;
54871;SDS011;43914;57.680;11.982;2023-01-28T03:07:20;8.80;;;1.70;;
54871;SDS011;43914;57.680;11.982;2023-01-28T03:09:48;7.10;;;1.40;;
54871;SDS011;43914;57.680;11.982;2023-01-28T03:12:21;7.00;;;1.20;;
54871;SDS011;43914;57.680;11.982;2023-01-28T03:18:12;10.90;;;1.90;;
54871;SDS011;43914;57.680;11.982;2023-01-28T03:21:12;9.00;;;1.60;;
54871;SDS011;43914;57.680;11.982;2023-01-28T03:24:07;9.30;;;1.80;;
54871;SDS011;43914;57.680;11.982;2023-01-28T03:26:57;9.50;;;1.70;;
54871;SDS011;43914;57.680;11.982;2023-01-28T03:29:48;9.30;;;1.70;;
54871;SDS011;43914;57.680;11.982;2023-01-28T03:32:34;10.60;;;1.60;;
54871;SDS011;43914;57.680;11.982;2023-01-28T03:35:21;10.90;;;1.70;;
54871;SDS011;43914;57.680;11.982;2023-01-28T03:38:08;9.60;;;1.70;;
54871;SDS011;43914;57.680;11.982;2023-01-28T03:40:48;9.70;;;1.60;;
54871;SDS011;43914;57.680;11.982;2023-01-28T03:43:13;8.50;;;1.60;;
54871;SDS011;43914;57.680;11.982;2023-01-28T03:45:39;10.90;;;1.60;;
54871;SDS011;43914;57.680;11.982;2023-01-28T03:48:04;9.40;;;1.70;;
54871;SDS011;43914;57.680;11.982;2023-01-28T03:50:30;9.00;;;2.40;;
54871;SDS011;43914;57.680;11.982;2023-01-28T03:52:55;11.10;;;2.10;;
54871;SDS011;43914;57.680;11.982;2023-01-28T03:55:36;8.20;;;1.70;;
54871;SDS011;43914;57.680;11.982;2023-01-28T03:58:03;9.30;;;1.70;;
54871;SDS011;43914;57.680;11.982;2023-01-28T04:00:30;11.10;;;1.80;;
54871;SDS011;43914;57.680;11.982;2023-01-28T04:02:57;9.30;;;1.40;;
54871;SDS011;43914;57.680;11.982;2023-01-28T04:05:23;11.80;;;1.90;;
54871;SDS011;43914;57.680;11.982;2023-01-28T04:07:53;12.30;;;1.70;;
54871;SDS011;43914;57.680;11.982;2023-01-28T04:10:19;7.50;;;1.40;;
54871;SDS011;43914;57.680;11.982;2023-01-28T04:12:44;10.40;;;1.70;;
54871;SDS011;43914;57.680;11.982;2023-01-28T04:15:17;9.20;;;1.70;;
54871;SDS011;43914;57.680;11.982;2023-01-28T04:17:46;8.10;;;1.50;;
54871;SDS011;43914;57.680;11.982;2023-01-28T04:20:13;12.00;;;1.50;;
54871;SDS011;43914;57.680;11.982;2023-01-28T04:22:39;10.70;;;1.60;;
54871;SDS011;43914;57.680;11.982;2023-01-28T04:25:05;9.50;;;1.60;;
54871;SDS011;43914;57.680;11.982;2023-01-28T04:27:31;9.10;;;2.20;;
54871;SDS011;43914;57.680;11.982;2023-01-28T04:29:57;12.80;;;1.60;;
54871;SDS011;43914;57.680;11.982;2023-01-28T04:32:22;11.50;;;2.00;;
54871;SDS011;43914;57.680;11.982;2023-01-28T04:34:47;12.80;;;1.90;;
54871;SDS011;43914;57.680;11.982;2023-01-28T04:37:14;10.90;;;2.00;;
54871;SDS011;43914;57.680;11.982;2023-01-28T04:39:40;12.10;;;2.20;;
54871;SDS011;43914;57.680;11.982;2023-01-28T04:42:05;11.50;;;1.90;;
54871;SDS011;43914;57.680;11.982;2023-01-28T04:44:31;9.40;;;1.70;;
54871;SDS011;43914;57.680;11.982;2023-01-28T04:46:56;7.70;;;1.40;;
54871;SDS011;43914;57.680;11.982;2023-01-28T04:49:22;11.70;;;1.80;;
54871;SDS011;43914;57.680;11.982;2023-01-28T04:51:47;9.70;;;1.80;;
54871;SDS011;43914;57.680;11.982;2023-01-28T04:54:13;12.40;;;1.80;;
54871;SDS011;43914;57.680;11.982;2023-01-28T04:56:38;11.00;;;1.80;;
54871;SDS011;43914;57.680;11.982;2023-01-28T04:59:04;11.40;;;2.10;;
54871;SDS011;43914;57.680;11.982;2023-01-28T05:01:29;7.50;;;1.60;;
54871;SDS011;43914;57.680;11.982;2023-01-28T05:03:55;7.60;;;1.70;;
54871;SDS011;43914;57.680;11.982;2023-01-28T05:06:20;11.20;;;1.90;;
54871;SDS011;43914;57.680;11.982;2023-01-28T05:08:46;12.70;;;1.70;;
54871;SDS011;43914;57.680;11.982;2023-01-28T05:11:12;13.80;;;2.10;;
54871;SDS011;43914;57.680;11.982;2023-01-28T05:13:38;12.20;;;2.10;;
54871;SDS011;43914;57.680;11.982;2023-01-28T05:16:04;14.20;;;1.90;;
54871;SDS011;43914;57.680;11.982;2023-01-28T05:18:30;8.00;;;1.70;;
54871;SDS011;43914;57.680;11.982;2023-01-28T05:20:56;8.80;;;1.70;;
54871;SDS011;43914;57.680;11.982;2023-01-28T05:23:22;11.60;;;1.80;;
54871;SDS011;43914;57.680;11.982;2023-01-28T05:25:48;8.40;;;1.70;;
54871;SDS011;43914;57.680;11.982;2023-01-28T05:28:14;12.40;;;2.00;;
54871;SDS011;43914;57.680;11.982;2023-01-28T05:30:41;12.30;;;1.90;;
54871;SDS011;43914;57.680;11.982;2023-01-28T05:33:06;11.10;;;1.60;;
54871;SDS011;43914;57.680;11.982;2023-01-28T05:35:32;10.20;;;1.80;;
54871;SDS011;43914;57.680;11.982;2023-01-28T05:38:00;14.00;;;2.20;;
54871;SDS011;43914;57.680;11.982;2023-01-28T05:40:26;10.10;;;1.70;;
54871;SDS011;43914;57.680;11.982;2023-01-28T05:42:51;11.70;;;1.90;;
54871;SDS011;43914;57.680;11.982;2023-01-28T05:45:17;11.40;;;2.20;;
54871;SDS011;43914;57.680;11.982;2023-01-28T05:47:42;10.40;;;1.80;;
54871;SDS011;43914;57.680;11.982;2023-01-28T05:50:08;13.30;;;1.90;;
54871;SDS011;43914;57.680;11.982;2023-01-28T05:52:34;12.10;;;2.00;;
54871;SDS011;43914;57.680;11.982;2023-01-28T05:54:59;10.30;;;1.50;;
54871;SDS011;43914;57.680;11.982;2023-01-28T05:57:25;12.00;;;1.60;;
54871;SDS011;43914;57.680;11.982;2023-01-28T05:59:50;9.00;;;1.50;;
54871;SDS011;43914;57.680;11.982;2023-01-28T06:02:16;9.20;;;1.70;;
54871;SDS011;43914;57.680;11.982;2023-01-28T06:04:41;10.20;;;1.60;;
54871;SDS011;43914;57.680;11.982;2023-01-28T06:07:07;12.40;;;2.00;;
54871;SDS011;43914;57.680;11.982;2023-01-28T06:09:32;10.70;;;1.90;;
54871;SDS011;43914;57.680;11.982;2023-01-28T06:11:58;12.80;;;2.10;;
54871;SDS011;43914;57.680;11.982;2023-01-28T06:14:23;13.20;;;2.10;;
54871;SDS011;43914;57.680;11.982;2023-01-28T06:16:49;13.40;;;1.90;;
54871;SDS011;43914;57.680;11.982;2023-01-28T06:19:16;10.90;;;1.90;;
54871;SDS011;43914;57.680;11.982;2023-01-28T06:21:41;12.30;;;2.40;;
54871;SDS011;43914;57.680;11.982;2023-01-28T06:24:07;13.40;;;2.40;;
54871;SDS011;43914;57.680;11.982;2023-01-28T06:26:33;12.50;;;2.60;;
54871;SDS011;43914;57.680;11.982;2023-01-28T06:28:58;13.00;;;2.30;;
54871;SDS011;43914;57.680;11.982;2023-01-28T06:31:24;11.70;;;2.30;;
54871;SDS011;43914;57.680;11.982;2023-01-28T06:33:49;11.70;;;1.90;;
54871;SDS011;43914;57.680;11.982;2023-01-28T06:36:15;13.30;;;2.30;;
54871;SDS011;43914;57.680;11.982;2023-01-28T06:38:40;17.70;;;2.10;;
54871;SDS011;43914;57.680;11.982;2023-01-28T06:41:06;12.30;;;2.20;;
54871;SDS011;43914;57.680;11.982;2023-01-28T06:43:31;14.70;;;2.70;;
54871;SDS011;43914;57.680;11.982;2023-01-28T06:45:57;10.00;;;2.40;;
54871;SDS011;43914;57.680;11.982;2023-01-28T06:48:23;14.10;;;2.60;;
54871;SDS011;43914;57.680;11.982;2023-01-28T06:50:52;14.10;;;2.50;;
54871;SDS011;43914;57.680;11.982;2023-01-28T06:53:18;16.40;;;2.60;;
54871;SDS011;43914;57.680;11.982;2023-01-28T06:55:44;12.40;;;2.70;;
54871;SDS011;43914;57.680;11.982;2023-01-28T06:58:09;14.70;;;2.40;;
54871;SDS011;43914;57.680;11.982;2023-01-28T07:00:35;17.00;;;2.80;;
54871;SDS011;43914;57.680;11.982;2023-01-28T07:03:02;15.40;;;2.70;;
54871;SDS011;43914;57.680;11.982;2023-01-28T07:05:28;14.50;;;2.50;;
54871;SDS011;43914;57.680;11.982;2023-01-28T07:07:54;10.70;;;2.30;;
54871;SDS011;43914;57.680;11.982;2023-01-28T07:10:19;10.80;;;2.50;;
54871;SDS011;43914;57.680;11.982;2023-01-28T07:12:45;17.10;;;2.90;;
54871;SDS011;43914;57.680;11.982;2023-01-28T07:15:11;14.40;;;2.50;;
54871;SDS011;43914;57.680;11.982;2023-01-28T07:17:39;14.40;;;3.20;;
54871;SDS011;43914;57.680;11.982;2023-01-28T07:20:06;11.30;;;2.40;;
54871;SDS011;43914;57.680;11.982;2023-01-28T07:22:32;15.70;;;2.90;;
54871;SDS011;43914;57.680;11.982;2023-01-28T07:24:58;14.40;;;2.30;;
54871;SDS011;43914;57.680;11.982;2023-01-28T07:27:25;12.70;;;2.50;;
54871;SDS011;43914;57.680;11.982;2023-01-28T07:29:51;7.80;;;2.00;;
54871;SDS011;43914;57.680;11.982;2023-01-28T07:32:17;15.70;;;2.70;;
54871;SDS011;43914;57.680;11.982;2023-01-28T07:34:42;10.90;;;2.20;;
54871;SDS011;43914;57.680;11.982;2023-01-28T07:37:08;14.30;;;2.90;;
54871;SDS011;43914;57.680;11.982;2023-01-28T07:39:34;11.80;;;2.90;;
54871;SDS011;43914;57.680;11.982;2023-01-28T07:42:00;13.70;;;3.00;;
54871;SDS011;43914;57.680;11.982;2023-01-28T07:44:26;11.20;;;2.20;;
54871;SDS011;43914;57.680;11.982;2023-01-28T07:46:52;12.00;;;2.50;;
54871;SDS011;43914;57.680;11.982;2023-01-28T07:49:18;14.50;;;2.70;;
54871;SDS011;43914;57.680;11.982;2023-01-28T07:51:43;13.00;;;2.80;;
54871;SDS011;43914;57.680;11.982;2023-01-28T07:54:11;12.30;;;2.70;;
54871;SDS011;43914;57.680;11.982;2023-01-28T07:56:37;13.70;;;2.40;;
54871;SDS011;43914;57.680;11.982;2023-01-28T07:59:02;12.90;;;2.50;;
54871;SDS011;43914;57.680;11.982;2023-01-28T08:01:28;14.20;;;2.60;;
54871;SDS011;43914;57.680;11.982;2023-01-28T08:03:54;9.80;;;1.80;;
54871;SDS011;43914;57.680;11.982;2023-01-28T08:06:20;11.90;;;2.20;;
54871;SDS011;43914;57.680;11.982;2023-01-28T08:08:48;11.60;;;2.10;;
54871;SDS011;43914;57.680;11.982;2023-01-28T08:11:14;13.10;;;2.50;;
54871;SDS011;43914;57.680;11.982;2023-01-28T08:13:39;14.50;;;2.50;;
54871;SDS011;43914;57.680;11.982;2023-01-28T08:16:05;13.30;;;2.80;;
54871;SDS011;43914;57.680;11.982;2023-01-28T08:18:31;10.40;;;2.30;;
54871;SDS011;43914;57.680;11.982;2023-01-28T08:20:57;14.70;;;1.70;;
54871;SDS011;43914;57.680;11.982;2023-01-28T08:23:23;13.70;;;2.30;;
54871;SDS011;43914;57.680;11.982;2023-01-28T08:25:53;9.70;;;2.40;;
54871;SDS011;43914;57.680;11.982;2023-01-28T08:28:19;10.80;;;2.10;;
54871;SDS011;43914;57.680;11.982;2023-01-28T08:30:46;11.30;;;2.20;;
54871;SDS011;43914;57.680;11.982;2023-01-28T08:33:13;11.20;;;2.30;;
54871;SDS011;43914;57.680;11.982;2023-01-28T08:35:39;7.70;;;1.50;;
54871;SDS011;43914;57.680;11.982;2023-01-28T08:38:05;11.30;;;2.00;;
54871;SDS011;43914;57.680;11.982;2023-01-28T08:40:32;14.40;;;2.50;;
54871;SDS011;43914;57.680;11.982;2023-01-28T08:42:58;12.10;;;2.00;;
54871;SDS011;43914;57.680;11.982;2023-01-28T08:45:24;10.50;;;2.10;;
54871;SDS011;43914;57.680;11.982;2023-01-28T08:47:55;12.60;;;2.10;;
54871;SDS011;43914;57.680;11.982;2023-01-28T08:50:32;15.60;;;2.10;;
54871;SDS011;43914;57.680;11.982;2023-01-28T08:53:01;12.30;;;2.40;;
54871;SDS011;43914;57.680;11.982;2023-01-28T08:55:28;8.40;;;1.40;;
54871;SDS011;43914;57.680;11.982;2023-01-28T08:57:54;12.70;;;2.30;;
54871;SDS011;43914;57.680;11.982;2023-01-28T09:00:20;11.00;;;1.90;;
54871;SDS011;43914;57.680;11.982;2023-01-28T09:02:46;9.90;;;1.90;;
54871;SDS011;43914;57.680;11.982;2023-01-28T09:05:16;14.10;;;2.10;;
54871;SDS011;43914;57.680;11.982;2023-01-28T09:07:41;12.00;;;2.40;;
54871;SDS011;43914;57.680;11.982;2023-01-28T09:10:07;12.80;;;2.00;;
54871;SDS011;43914;57.680;11.982;2023-01-28T09:12:33;11.10;;;2.30;;
54871;SDS011;43914;57.680;11.982;2023-01-28T09:14:59;15.80;;;2.90;;
54871;SDS011;43914;57.680;11.982;2023-01-28T09:17:25;13.20;;;2.20;;
54871;SDS011;43914;57.680;11.982;2023-01-28T09:19:50;14.60;;;2.40;;
54871;SDS011;43914;57.680;11.982;2023-01-28T09:22:16;12.10;;;2.20;;
54871;SDS011;43914;57.680;11.982;2023-01-28T09:24:42;12.40;;;2.00;;
54871;SDS011;43914;57.680;11.982;2023-01-28T09:27:07;14.00;;;2.30;;
54871;SDS011;43914;57.680;11.982;2023-01-28T09:29:33;13.40;;;2.50;;
54871;SDS011;43914;57.680;11.982;2023-01-28T09:31:59;13.30;;;2.30;;
54871;SDS011;43914;57.680;11.982;2023-01-28T09:34:25;15.60;;;2.70;;
54871;SDS011;43914;57.680;11.982;2023-01-28T09:36:50;12.30;;;2.00;;
54871;SDS011;43914;57.680;11.982;2023-01-28T09:39:16;11.40;;;2.20;;
54871;SDS011;43914;57.680;11.982;2023-01-28T09:41:51;10.00;;;1.80;;
54871;SDS011;43914;57.680;11.982;2023-01-28T09:47:34;14.80;;;2.10;;
54871;SDS011;43914;57.680;11.982;2023-01-28T09:50:36;12.00;;;2.10;;
54871;SDS011;43914;57.680;11.982;2023-01-28T09:53:21;10.30;;;2.00;;
54871;SDS011;43914;57.680;11.982;2023-01-28T09:55:49;10.60;;;1.90;;
54871;SDS011;43914;57.680;11.982;2023-01-28T09:58:22;12.40;;;2.20;;
54871;SDS011;43914;57.680;11.982;2023-01-28T10:03:45;15.40;;;3.10;;
54871;SDS011;43914;57.680;11.982;2023-01-28T10:14:40;15.60;;;2.60;;
54871;SDS011;43914;57.680;11.982;2023-01-28T10:17:34;12.60;;;2.40;;
54871;SDS011;43914;57.680;11.982;2023-01-28T10:20:06;12.00;;;2.00;;
54871;SDS011;43914;57.680;11.982;2023-01-28T10:23:02;17.60;;;2.60;;
54871;SDS011;43914;57.680;11.982;2023-01-28T10:26:00;15.90;;;2.30;;
54871;SDS011;43914;57.680;11.982;2023-01-28T10:28:33;11.10;;;2.00;;
54871;SDS011;43914;57.680;11.982;2023-01-28T10:31:00;11.80;;;2.40;;
54871;SDS011;43914;57.680;11.982;2023-01-28T10:35:51;15.60;;;2.50;;
54871;SDS011;43914;57.680;11.982;2023-01-28T10:38:20;11.20;;;1.90;;
54871;SDS011;43914;57.680;11.982;2023-01-28T10:40:47;17.00;;;2.30;;
54871;SDS011;43914;57.680;11.982;2023-01-28T10:43:32;12.20;;;2.10;;
54871;SDS011;43914;57.680;11.982;2023-01-28T10:48:42;18.90;;;2.20;;
54871;SDS011;43914;57.680;11.982;2023-01-28T10:51:39;18.80;;;1.90;;
54871;SDS011;43914;57.680;11.982;2023-01-28T10:54:18;17.00;;;2.50;;
54871;SDS011;43914;57.680;11.982;2023-01-28T10:56:49;14.80;;;2.80;;
54871;SDS011;43914;57.680;11.982;2023-01-28T11:01:51;14.10;;;2.70;;
54871;SDS011;43914;57.680;11.982;2023-01-28T11:09:30;14.30;;;2.80;;
54871;SDS011;43914;57.680;11.982;2023-01-28T11:11:58;11.70;;;2.20;;
54871;SDS011;43914;57.680;11.982;2023-01-28T11:14:34;18.90;;;2.60;;
54871;SDS011;43914;57.680;11.982;2023-01-28T11:16:59;16.20;;;2.40;;
54871;SDS011;43914;57.680;11.982;2023-01-28T11:19:27;19.30;;;2.40;;
54871;SDS011;43914;57.680;11.982;2023-01-28T11:22:00;18.10;;;2.40;;
54871;SDS011;43914;57.680;11.982;2023-01-28T11:24:27;16.50;;;2.20;;
54871;SDS011;43914;57.680;11.982;2023-01-28T11:26:56;14.60;;;2.10;;
54871;SDS011;43914;57.680;11.982;2023-01-28T11:29:29;17.70;;;2.40;;
54871;SDS011;43914;57.680;11.982;2023-01-28T11:31:57;14.30;;;2.20;;
54871;SDS011;43914;57.680;11.982;2023-01-28T11:34:26;15.00;;;2.50;;
54871;SDS011;43914;57.680;11.982;2023-01-28T11:36:59;20.70;;;3.00;;
54871;SDS011;43914;57.680;11.982;2023-01-28T11:39:27;22.40;;;2.60;;
54871;SDS011;43914;57.680;11.982;2023-01-28T11:41:54;19.60;;;3.00;;
54871;SDS011;43914;57.680;11.982;2023-01-28T11:44:39;14.10;;;2.30;;
54871;SDS011;43914;57.680;11.982;2023-01-28T11:49:37;18.30;;;2.70;;
54871;SDS011;43914;57.680;11.982;2023-01-28T12:00:19;15.50;;;2.90;;
54871;SDS011;43914;57.680;11.982;2023-01-28T12:27:57;16.20;;;2.80;;
54871;SDS011;43914;57.680;11.982;2023-01-28T12:44:33;19.00;;;3.10;;
54871;SDS011;43914;57.680;11.982;2023-01-28T12:47:08;15.00;;;2.80;;
54871;SDS011;43914;57.680;11.982;2023-01-28T12:49:59;15.90;;;2.80;;
54871;SDS011;43914;57.680;11.982;2023-01-28T12:52:37;13.10;;;2.70;;
54871;SDS011;43914;57.680;11.982;2023-01-28T12:55:34;13.00;;;2.90;;
54871;SDS011;43914;57.680;11.982;2023-01-28T12:58:06;16.30;;;2.90;;
54871;SDS011;43914;57.680;11.982;2023-01-28T13:00:45;18.10;;;2.40;;
54871;SDS011;43914;57.680;11.982;2023-01-28T13:05:59;10.50;;;2.20;;
54871;SDS011;43914;57.680;11.982;2023-01-28T13:08:28;15.50;;;2.60;;
54871;SDS011;43914;57.680;11.982;2023-01-28T13:10:55;15.50;;;2.60;;
54871;SDS011;43914;57.680;11.982;2023-01-28T13:16:02;18.20;;;2.60;;
54871;SDS011;43914;57.680;11.982;2023-01-28T13:21:05;12.80;;;2.50;;
54871;SDS011;43914;57.680;11.982;2023-01-28T13:23:43;21.50;;;3.10;;
54871;SDS011;43914;57.680;11.982;2023-01-28T13:28:46;17.50;;;2.70;;
54871;SDS011;43914;57.680;11.982;2023-01-28T13:31:16;22.70;;;2.90;;
54871;SDS011;43914;57.680;11.982;2023-01-28T13:36:25;13.70;;;3.00;;
54871;SDS011;43914;57.680;11.982;2023-01-28T13:38:59;11.80;;;2.60;;
54871;SDS011;43914;57.680;11.982;2023-01-28T13:41:38;21.70;;;3.10;;
54871;SDS011;43914;57.680;11.982;2023-01-28T13:44:33;20.20;;;3.10;;
54871;SDS011;43914;57.680;11.982;2023-01-28T13:49:45;20.00;;;3.60;;
54871;SDS011;43914;57.680;11.982;2023-01-28T13:52:15;18.20;;;3.20;;
54871;SDS011;43914;57.680;11.982;2023-01-28T14:00:18;21.30;;;3.00;;
54871;SDS011;43914;57.680;11.982;2023-01-28T14:15:56;28.80;;;3.20;;
54871;SDS011;43914;57.680;11.982;2023-01-28T14:18:26;19.40;;;2.70;;
54871;SDS011;43914;57.680;11.982;2023-01-28T14:20:57;22.60;;;3.60;;
54871;SDS011;43914;57.680;11.982;2023-01-28T14:23:25;24.30;;;3.30;;
54871;SDS011;43914;57.680;11.982;2023-01-28T14:33:48;24.90;;;3.50;;
54871;SDS011;43914;57.680;11.982;2023-01-28T14:36:14;29.00;;;4.30;;
54871;SDS011;43914;57.680;11.982;2023-01-28T14:38:41;24.70;;;3.90;;
54871;SDS011;43914;57.680;11.982;2023-01-28T14:41:09;21.00;;;3.10;;
54871;SDS011;43914;57.680;11.982;2023-01-28T14:43:47;24.20;;;3.40;;
54871;SDS011;43914;57.680;11.982;2023-01-28T14:46:19;27.80;;;3.60;;
54871;SDS011;43914;57.680;11.982;2023-01-28T14:54:35;22.30;;;3.10;;
54871;SDS011;43914;57.680;11.982;2023-01-28T14:57:09;26.90;;;4.00;;
54871;SDS011;43914;57.680;11.982;2023-01-28T14:59:41;24.40;;;3.40;;
54871;SDS011;43914;57.680;11.982;2023-01-28T15:02:29;26.50;;;3.40;;
54871;SDS011;43914;57.680;11.982;2023-01-28T15:05:06;20.80;;;3.10;;
54871;SDS011;43914;57.680;11.982;2023-01-28T15:07:33;24.80;;;3.40;;
54871;SDS011;43914;57.680;11.982;2023-01-28T15:09:59;23.90;;;3.40;;
54871;SDS011;43914;57.680;11.982;2023-01-28T15:12:27;20.50;;;2.90;;
54871;SDS011;43914;57.680;11.982;2023-01-28T15:14:54;36.20;;;3.80;;
54871;SDS011;43914;57.680;11.982;2023-01-28T15:17:22;28.60;;;4.00;;
54871;SDS011;43914;57.680;11.982;2023-01-28T15:19:51;22.20;;;3.30;;
54871;SDS011;43914;57.680;11.982;2023-01-28T15:22:22;26.30;;;3.10;;
54871;SDS011;43914;57.680;11.982;2023-01-28T15:24:51;25.20;;;3.50;;
54871;SDS011;43914;57.680;11.982;2023-01-28T15:27:18;40.50;;;4.50;;
54871;SDS011;43914;57.680;11.982;2023-01-28T15:29:55;29.20;;;3.30;;
54871;SDS011;43914;57.680;11.982;2023-01-28T15:32:29;20.50;;;2.80;;
54871;SDS011;43914;57.680;11.982;2023-01-28T15:34:55;23.50;;;3.20;;
54871;SDS011;43914;57.680;11.982;2023-01-28T15:37:25;21.80;;;3.40;;
54871;SDS011;43914;57.680;11.982;2023-01-28T15:40:00;22.20;;;2.70;;
54871;SDS011;43914;57.680;11.982;2023-01-28T15:42:29;16.60;;;2.70;;
54871;SDS011;43914;57.680;11.982;2023-01-28T15:44:55;22.80;;;3.90;;
54871;SDS011;43914;57.680;11.982;2023-01-28T15:47:33;24.70;;;3.70;;
54871;SDS011;43914;57.680;11.982;2023-01-28T15:50:03;26.50;;;3.30;;
54871;SDS011;43914;57.680;11.982;2023-01-28T15:52:35;24.40;;;3.40;;
54871;SDS011;43914;57.680;11.982;2023-01-28T15:55:03;24.40;;;3.70;;
54871;SDS011;43914;57.680;11.982;2023-01-28T15:57:30;21.20;;;3.10;;
54871;SDS011;43914;57.680;11.982;2023-01-28T16:00:41;25.40;;;3.20;;
54871;SDS011;43914;57.680;11.982;2023-01-28T16:02:52;23.00;;;3.20;;
54871;SDS011;43914;57.680;11.982;2023-01-28T16:05:26;21.10;;;3.10;;
54871;SDS011;43914;57.680;11.982;2023-01-28T16:07:55;21.50;;;4.10;;
54871;SDS011;43914;57.680;11.982;2023-01-28T16:10:24;22.30;;;3.50;;
54871;SDS011;43914;57.680;11.982;2023-01-28T16:13:15;17.70;;;3.60;;
54871;SDS011;43914;57.680;11.982;2023-01-28T16:15:47;28.60;;;3.70;;
54871;SDS011;43914;57.680;11.982;2023-01-28T16:21:08;21.90;;;2.90;;
54871;SDS011;43914;57.680;11.982;2023-01-28T16:23:39;21.50;;;3.00;;
54871;SDS011;43914;57.680;11.982;2023-01-28T16:26:06;25.70;;;3.10;;
54871;SDS011;43914;57.680;11.982;2023-01-28T16:28:45;24.20;;;3.20;;
54871;SDS011;43914;57.680;11.982;2023-01-28T16:31:10;24.50;;;3.40;;
54871;SDS011;43914;57.680;11.982;2023-01-28T16:33:36;26.20;;;3.40;;
54871;SDS011;43914;57.680;11.982;2023-01-28T16:36:01;24.30;;;3.30;;
54871;SDS011;43914;57.680;11.982;2023-01-28T16:38:27;21.90;;;3.50;;
54871;SDS011;43914;57.680;11.982;2023-01-28T16:40:52;22.50;;;3.70;;
54871;SDS011;43914;57.680;11.982;2023-01-28T16:43:18;27.30;;;4.30;;
54871;SDS011;43914;57.680;11.982;2023-01-28T16:45:43;27.10;;;3.60;;
54871;SDS011;43914;57.680;11.982;2023-01-28T16:48:10;27.60;;;4.10;;
54871;SDS011;43914;57.680;11.982;2023-01-28T16:50:37;30.70;;;3.60;;
54871;SDS011;43914;57.680;11.982;2023-01-28T16:53:38;20.30;;;3.10;;
54871;SDS011;43914;57.680;11.982;2023-01-28T16:55:58;27.10;;;3.50;;
54871;SDS011;43914;57.680;11.982;2023-01-28T16:58:24;23.80;;;3.40;;
54871;SDS011;43914;57.680;11.982;2023-01-28T17:00:51;22.50;;;2.80;;
54871;SDS011;43914;57.680;11.982;2023-01-28T17:03:18;26.60;;;3.50;;
54871;SDS011;43914;57.680;11.982;2023-01-28T17:05:44;30.70;;;3.30;;
54871;SDS011;43914;57.680;11.982;2023-01-28T17:08:10;20.00;;;2.80;;
54871;SDS011;43914;57.680;11.982;2023-01-28T17:10:35;26.80;;;3.20;;
54871;SDS011;43914;57.680;11.982;2023-01-28T17:13:01;30.10;;;3.40;;
54871;SDS011;43914;57.680;11.982;2023-01-28T17:15:27;23.40;;;3.90;;